sensor_id;sensor_type;location;lat;lon;timestamp;temperature;humidity
66934;DHT22;53846;51.984;5.890;2022-08-16T00:00:06;25.00;56.30
66934;DHT22;53846;51.984;5.890;2022-08-16T00:02:36;25.10;56.40
66934;DHT22;53846;51.984;5.890;2022-08-16T00:05:08;25.00;56.10
66934;DHT22;53846;51.984;5.890;2022-08-16T00:07:41;25.30;56.20
66934;DHT22;53846;51.984;5.890;2022-08-16T00:10:12;25.30;56.20
66934;DHT22;53846;51.984;5.890;2022-08-16T00:12:43;25.00;56.60
66934;DHT22;53846;51.984;5.890;2022-08-16T00:15:15;25.00;56.00
66934;DHT22;53846;51.984;5.890;2022-08-16T00:17:45;25.00;56.10
66934;DHT22;53846;51.984;5.890;2022-08-16T00:20:20;24.90;56.10
66934;DHT22;53846;51.984;5.890;2022-08-16T00:22:56;24.90;56.30
66934;DHT22;53846;51.984;5.890;2022-08-16T00:25:28;24.90;56.20
66934;DHT22;53846;51.984;5.890;2022-08-16T00:27:58;24.80;56.10
66934;DHT22;53846;51.984;5.890;2022-08-16T00:30:27;24.80;56.20
66934;DHT22;53846;51.984;5.890;2022-08-16T00:32:58;24.70;56.20
66934;DHT22;53846;51.984;5.890;2022-08-16T00:35:34;24.80;56.40
66934;DHT22;53846;51.984;5.890;2022-08-16T00:38:09;24.90;56.60
66934;DHT22;53846;51.984;5.890;2022-08-16T00:40:41;24.70;56.60
66934;DHT22;53846;51.984;5.890;2022-08-16T00:43:13;24.60;56.50
66934;DHT22;53846;51.984;5.890;2022-08-16T00:45:49;24.60;56.40
66934;DHT22;53846;51.984;5.890;2022-08-16T00:48:21;24.50;56.30
66934;DHT22;53846;51.984;5.890;2022-08-16T00:50:50;24.50;56.40
66934;DHT22;53846;51.984;5.890;2022-08-16T00:53:24;24.50;56.60
66934;DHT22;53846;51.984;5.890;2022-08-16T00:55:55;24.30;56.80
66934;DHT22;53846;51.984;5.890;2022-08-16T00:58:26;24.50;57.20
66934;DHT22;53846;51.984;5.890;2022-08-16T01:01:02;24.30;57.10
66934;DHT22;53846;51.984;5.890;2022-08-16T01:03:31;24.10;56.90
66934;DHT22;53846;51.984;5.890;2022-08-16T01:06:01;24.20;56.80
66934;DHT22;53846;51.984;5.890;2022-08-16T01:08:35;24.30;57.00
66934;DHT22;53846;51.984;5.890;2022-08-16T01:11:05;24.20;57.10
66934;DHT22;53846;51.984;5.890;2022-08-16T01:13:37;24.00;57.60
66934;DHT22;53846;51.984;5.890;2022-08-16T01:16:09;24.20;57.70
66934;DHT22;53846;51.984;5.890;2022-08-16T01:18:43;24.20;57.50
66934;DHT22;53846;51.984;5.890;2022-08-16T01:21:20;24.20;57.40
66934;DHT22;53846;51.984;5.890;2022-08-16T01:24:02;24.10;57.40
66934;DHT22;53846;51.984;5.890;2022-08-16T01:26:43;24.20;57.60
66934;DHT22;53846;51.984;5.890;2022-08-16T01:29:21;24.00;57.60
66934;DHT22;53846;51.984;5.890;2022-08-16T01:31:52;24.20;57.70
66934;DHT22;53846;51.984;5.890;2022-08-16T01:34:21;24.10;57.50
66934;DHT22;53846;51.984;5.890;2022-08-16T01:36:58;24.20;57.70
66934;DHT22;53846;51.984;5.890;2022-08-16T01:39:32;24.00;57.70
66934;DHT22;53846;51.984;5.890;2022-08-16T01:42:02;24.00;57.80
66934;DHT22;53846;51.984;5.890;2022-08-16T01:44:33;24.00;57.80
66934;DHT22;53846;51.984;5.890;2022-08-16T01:47:04;24.00;57.60
66934;DHT22;53846;51.984;5.890;2022-08-16T01:49:39;23.90;57.70
66934;DHT22;53846;51.984;5.890;2022-08-16T01:52:10;23.70;57.80
66934;DHT22;53846;51.984;5.890;2022-08-16T01:54:54;23.80;58.00
66934;DHT22;53846;51.984;5.890;2022-08-16T01:57:25;23.80;58.20
66934;DHT22;53846;51.984;5.890;2022-08-16T01:59:55;23.80;58.30
66934;DHT22;53846;51.984;5.890;2022-08-16T02:02:25;23.90;58.50
66934;DHT22;53846;51.984;5.890;2022-08-16T02:04:55;23.80;58.70
66934;DHT22;53846;51.984;5.890;2022-08-16T02:07:25;23.60;58.60
66934;DHT22;53846;51.984;5.890;2022-08-16T02:09:57;23.50;58.70
66934;DHT22;53846;51.984;5.890;2022-08-16T02:12:40;23.80;58.90
66934;DHT22;53846;51.984;5.890;2022-08-16T02:15:15;23.70;58.90
66934;DHT22;53846;51.984;5.890;2022-08-16T02:17:44;23.80;59.30
66934;DHT22;53846;51.984;5.890;2022-08-16T02:20:14;23.50;59.00
66934;DHT22;53846;51.984;5.890;2022-08-16T02:22:44;23.50;59.00
66934;DHT22;53846;51.984;5.890;2022-08-16T02:25:18;23.60;59.10
66934;DHT22;53846;51.984;5.890;2022-08-16T02:27:47;23.60;59.30
66934;DHT22;53846;51.984;5.890;2022-08-16T02:30:20;23.00;60.30
66934;DHT22;53846;51.984;5.890;2022-08-16T02:32:52;23.60;60.40
66934;DHT22;53846;51.984;5.890;2022-08-16T02:35:25;23.40;59.60
66934;DHT22;53846;51.984;5.890;2022-08-16T02:37:54;23.40;59.40
66934;DHT22;53846;51.984;5.890;2022-08-16T02:40:28;23.50;59.30
66934;DHT22;53846;51.984;5.890;2022-08-16T02:42:57;23.40;59.10
66934;DHT22;53846;51.984;5.890;2022-08-16T02:45:27;23.50;59.20
66934;DHT22;53846;51.984;5.890;2022-08-16T02:47:58;23.50;59.40
66934;DHT22;53846;51.984;5.890;2022-08-16T02:50:28;23.20;59.30
66934;DHT22;53846;51.984;5.890;2022-08-16T02:52:59;23.40;59.60
66934;DHT22;53846;51.984;5.890;2022-08-16T02:55:33;23.50;59.70
66934;DHT22;53846;51.984;5.890;2022-08-16T02:58:02;23.60;59.80
66934;DHT22;53846;51.984;5.890;2022-08-16T03:00:33;23.30;59.70
66934;DHT22;53846;51.984;5.890;2022-08-16T03:03:04;23.30;59.80
66934;DHT22;53846;51.984;5.890;2022-08-16T03:05:33;23.50;60.00
66934;DHT22;53846;51.984;5.890;2022-08-16T03:08:02;23.30;59.90
66934;DHT22;53846;51.984;5.890;2022-08-16T03:10:40;23.00;59.90
66934;DHT22;53846;51.984;5.890;2022-08-16T03:13:10;23.20;60.10
66934;DHT22;53846;51.984;5.890;2022-08-16T03:15:41;23.10;60.10
66934;DHT22;53846;51.984;5.890;2022-08-16T03:18:11;23.10;60.20
66934;DHT22;53846;51.984;5.890;2022-08-16T03:20:40;23.10;60.20
66934;DHT22;53846;51.984;5.890;2022-08-16T03:23:09;23.10;60.20
66934;DHT22;53846;51.984;5.890;2022-08-16T03:25:43;23.10;60.30
66934;DHT22;53846;51.984;5.890;2022-08-16T03:28:13;23.10;60.40
66934;DHT22;53846;51.984;5.890;2022-08-16T03:30:43;23.20;60.50
66934;DHT22;53846;51.984;5.890;2022-08-16T03:33:12;23.00;60.60
66934;DHT22;53846;51.984;5.890;2022-08-16T03:35:48;22.90;60.60
66934;DHT22;53846;51.984;5.890;2022-08-16T03:38:29;22.90;60.70
66934;DHT22;53846;51.984;5.890;2022-08-16T03:41:10;22.90;60.50
66934;DHT22;53846;51.984;5.890;2022-08-16T03:43:40;22.80;60.70
66934;DHT22;53846;51.984;5.890;2022-08-16T03:46:12;22.80;60.70
66934;DHT22;53846;51.984;5.890;2022-08-16T03:48:41;22.70;60.70
66934;DHT22;53846;51.984;5.890;2022-08-16T03:51:16;22.90;60.70
66934;DHT22;53846;51.984;5.890;2022-08-16T03:53:51;23.00;60.80
66934;DHT22;53846;51.984;5.890;2022-08-16T03:56:22;22.70;60.80
66934;DHT22;53846;51.984;5.890;2022-08-16T03:58:55;22.70;60.90
66934;DHT22;53846;51.984;5.890;2022-08-16T04:01:27;22.70;61.10
66934;DHT22;53846;51.984;5.890;2022-08-16T04:03:57;22.80;61.20
66934;DHT22;53846;51.984;5.890;2022-08-16T04:06:28;22.60;61.40
66934;DHT22;53846;51.984;5.890;2022-08-16T04:08:57;22.80;61.40
66934;DHT22;53846;51.984;5.890;2022-08-16T04:11:29;22.60;61.40
66934;DHT22;53846;51.984;5.890;2022-08-16T04:13:59;22.50;61.50
66934;DHT22;53846;51.984;5.890;2022-08-16T04:16:32;22.40;61.50
66934;DHT22;53846;51.984;5.890;2022-08-16T04:19:21;22.50;61.70
66934;DHT22;53846;51.984;5.890;2022-08-16T04:21:53;22.30;61.40
66934;DHT22;53846;51.984;5.890;2022-08-16T04:24:28;22.50;61.50
66934;DHT22;53846;51.984;5.890;2022-08-16T04:27:00;22.40;61.60
66934;DHT22;53846;51.984;5.890;2022-08-16T04:29:31;22.50;61.60
66934;DHT22;53846;51.984;5.890;2022-08-16T04:32:00;22.30;62.00
66934;DHT22;53846;51.984;5.890;2022-08-16T04:34:34;22.40;62.00
66934;DHT22;53846;51.984;5.890;2022-08-16T04:37:05;22.40;62.30
66934;DHT22;53846;51.984;5.890;2022-08-16T04:39:42;22.30;62.80
66934;DHT22;53846;51.984;5.890;2022-08-16T04:42:13;22.20;62.80
66934;DHT22;53846;51.984;5.890;2022-08-16T04:44:43;22.30;63.10
66934;DHT22;53846;51.984;5.890;2022-08-16T04:47:12;22.20;63.70
66934;DHT22;53846;51.984;5.890;2022-08-16T04:49:41;22.20;63.70
66934;DHT22;53846;51.984;5.890;2022-08-16T04:52:11;22.20;63.60
66934;DHT22;53846;51.984;5.890;2022-08-16T04:54:40;22.20;63.70
66934;DHT22;53846;51.984;5.890;2022-08-16T04:57:10;22.20;64.10
66934;DHT22;53846;51.984;5.890;2022-08-16T04:59:41;22.40;64.60
66934;DHT22;53846;51.984;5.890;2022-08-16T05:02:10;22.10;64.80
66934;DHT22;53846;51.984;5.890;2022-08-16T05:04:39;22.10;64.60
66934;DHT22;53846;51.984;5.890;2022-08-16T05:07:09;22.10;64.50
66934;DHT22;53846;51.984;5.890;2022-08-16T05:09:55;22.10;64.50
66934;DHT22;53846;51.984;5.890;2022-08-16T05:12:24;22.00;64.60
66934;DHT22;53846;51.984;5.890;2022-08-16T05:14:56;22.00;64.70
66934;DHT22;53846;51.984;5.890;2022-08-16T05:17:25;21.80;64.90
66934;DHT22;53846;51.984;5.890;2022-08-16T05:19:57;22.00;64.80
66934;DHT22;53846;51.984;5.890;2022-08-16T05:22:36;21.90;65.00
66934;DHT22;53846;51.984;5.890;2022-08-16T05:25:07;22.10;65.20
66934;DHT22;53846;51.984;5.890;2022-08-16T05:27:41;22.20;65.50
66934;DHT22;53846;51.984;5.890;2022-08-16T05:30:16;22.10;65.40
66934;DHT22;53846;51.984;5.890;2022-08-16T05:32:45;22.10;65.50
66934;DHT22;53846;51.984;5.890;2022-08-16T05:35:16;21.80;65.20
66934;DHT22;53846;51.984;5.890;2022-08-16T05:38:05;22.10;65.30
66934;DHT22;53846;51.984;5.890;2022-08-16T05:40:35;22.10;65.20
66934;DHT22;53846;51.984;5.890;2022-08-16T05:43:05;22.20;66.70
66934;DHT22;53846;51.984;5.890;2022-08-16T05:45:37;22.20;66.80
66934;DHT22;53846;51.984;5.890;2022-08-16T05:48:07;22.10;66.20
66934;DHT22;53846;51.984;5.890;2022-08-16T05:50:47;21.90;66.40
66934;DHT22;53846;51.984;5.890;2022-08-16T05:53:16;22.20;66.30
66934;DHT22;53846;51.984;5.890;2022-08-16T05:56:01;22.20;66.30
66934;DHT22;53846;51.984;5.890;2022-08-16T05:58:35;22.20;66.30
66934;DHT22;53846;51.984;5.890;2022-08-16T06:01:09;22.10;66.50
66934;DHT22;53846;51.984;5.890;2022-08-16T06:03:40;22.20;66.80
66934;DHT22;53846;51.984;5.890;2022-08-16T06:06:23;22.20;66.90
66934;DHT22;53846;51.984;5.890;2022-08-16T06:08:52;22.30;67.00
66934;DHT22;53846;51.984;5.890;2022-08-16T06:11:21;22.30;67.50
66934;DHT22;53846;51.984;5.890;2022-08-16T06:13:54;22.60;68.10
66934;DHT22;53846;51.984;5.890;2022-08-16T06:16:39;22.30;67.10
66934;DHT22;53846;51.984;5.890;2022-08-16T06:19:09;22.00;67.20
66934;DHT22;53846;51.984;5.890;2022-08-16T06:21:44;22.30;67.40
66934;DHT22;53846;51.984;5.890;2022-08-16T06:24:14;22.30;67.30
66934;DHT22;53846;51.984;5.890;2022-08-16T06:26:43;22.50;68.60
66934;DHT22;53846;51.984;5.890;2022-08-16T06:29:12;22.40;68.30
66934;DHT22;53846;51.984;5.890;2022-08-16T06:31:44;22.40;68.70
66934;DHT22;53846;51.984;5.890;2022-08-16T06:34:13;22.30;68.60
66934;DHT22;53846;51.984;5.890;2022-08-16T06:36:42;22.70;68.40
66934;DHT22;53846;51.984;5.890;2022-08-16T06:39:18;22.40;68.20
66934;DHT22;53846;51.984;5.890;2022-08-16T06:41:54;22.50;68.20
66934;DHT22;53846;51.984;5.890;2022-08-16T06:44:43;22.70;68.00
66934;DHT22;53846;51.984;5.890;2022-08-16T06:47:34;23.00;68.00
66934;DHT22;53846;51.984;5.890;2022-08-16T06:50:04;22.90;68.20
66934;DHT22;53846;51.984;5.890;2022-08-16T06:52:38;22.80;67.70
66934;DHT22;53846;51.984;5.890;2022-08-16T06:55:09;22.90;67.70
66934;DHT22;53846;51.984;5.890;2022-08-16T06:57:43;22.90;67.70
66934;DHT22;53846;51.984;5.890;2022-08-16T07:00:13;23.00;67.80
66934;DHT22;53846;51.984;5.890;2022-08-16T07:02:56;22.90;67.80
66934;DHT22;53846;51.984;5.890;2022-08-16T07:05:26;23.00;67.50
66934;DHT22;53846;51.984;5.890;2022-08-16T07:08:08;23.20;67.10
66934;DHT22;53846;51.984;5.890;2022-08-16T07:10:39;23.00;66.40
66934;DHT22;53846;51.984;5.890;2022-08-16T07:13:08;23.00;66.20
66934;DHT22;53846;51.984;5.890;2022-08-16T07:15:40;23.40;66.40
66934;DHT22;53846;51.984;5.890;2022-08-16T07:18:12;23.40;66.30
66934;DHT22;53846;51.984;5.890;2022-08-16T07:20:42;23.40;65.60
66934;DHT22;53846;51.984;5.890;2022-08-16T07:23:12;23.40;65.20
66934;DHT22;53846;51.984;5.890;2022-08-16T07:25:48;23.70;65.50
66934;DHT22;53846;51.984;5.890;2022-08-16T07:28:19;23.60;65.30
66934;DHT22;53846;51.984;5.890;2022-08-16T07:30:49;23.70;65.00
66934;DHT22;53846;51.984;5.890;2022-08-16T07:33:33;23.70;64.90
66934;DHT22;53846;51.984;5.890;2022-08-16T07:36:04;23.70;64.50
66934;DHT22;53846;51.984;5.890;2022-08-16T07:38:39;23.80;64.30
66934;DHT22;53846;51.984;5.890;2022-08-16T07:41:09;23.90;63.60
66934;DHT22;53846;51.984;5.890;2022-08-16T07:43:43;24.00;63.20
66934;DHT22;53846;51.984;5.890;2022-08-16T07:46:14;24.00;62.80
66934;DHT22;53846;51.984;5.890;2022-08-16T07:48:47;24.20;61.50
66934;DHT22;53846;51.984;5.890;2022-08-16T07:51:16;24.20;61.80
66934;DHT22;53846;51.984;5.890;2022-08-16T07:53:45;24.20;61.80
66934;DHT22;53846;51.984;5.890;2022-08-16T07:56:17;24.40;61.40
66934;DHT22;53846;51.984;5.890;2022-08-16T07:58:47;24.50;60.80
66934;DHT22;53846;51.984;5.890;2022-08-16T08:01:16;24.50;60.40
66934;DHT22;53846;51.984;5.890;2022-08-16T08:03:52;24.60;60.60
66934;DHT22;53846;51.984;5.890;2022-08-16T08:06:27;24.70;60.70
66934;DHT22;53846;51.984;5.890;2022-08-16T08:09:03;25.00;60.30
66934;DHT22;53846;51.984;5.890;2022-08-16T08:11:32;25.00;59.60
66934;DHT22;53846;51.984;5.890;2022-08-16T08:14:05;25.20;60.10
66934;DHT22;53846;51.984;5.890;2022-08-16T08:16:41;24.80;59.80
66934;DHT22;53846;51.984;5.890;2022-08-16T08:19:17;25.20;58.80
66934;DHT22;53846;51.984;5.890;2022-08-16T08:21:46;25.20;56.60
66934;DHT22;53846;51.984;5.890;2022-08-16T08:24:19;25.30;57.90
66934;DHT22;53846;51.984;5.890;2022-08-16T08:26:48;25.50;56.60
66934;DHT22;53846;51.984;5.890;2022-08-16T08:29:18;25.50;56.80
66934;DHT22;53846;51.984;5.890;2022-08-16T08:31:47;25.50;56.90
66934;DHT22;53846;51.984;5.890;2022-08-16T08:34:20;25.70;56.20
66934;DHT22;53846;51.984;5.890;2022-08-16T08:36:50;25.80;56.20
66934;DHT22;53846;51.984;5.890;2022-08-16T08:39:29;25.80;56.00
66934;DHT22;53846;51.984;5.890;2022-08-16T08:41:59;26.00;56.20
66934;DHT22;53846;51.984;5.890;2022-08-16T08:44:32;26.00;56.50
66934;DHT22;53846;51.984;5.890;2022-08-16T08:47:07;25.80;56.20
66934;DHT22;53846;51.984;5.890;2022-08-16T08:49:40;26.40;55.50
66934;DHT22;53846;51.984;5.890;2022-08-16T08:52:09;26.30;55.30
66934;DHT22;53846;51.984;5.890;2022-08-16T08:54:38;26.40;55.40
66934;DHT22;53846;51.984;5.890;2022-08-16T08:57:07;26.50;55.30
66934;DHT22;53846;51.984;5.890;2022-08-16T08:59:48;26.60;54.90
66934;DHT22;53846;51.984;5.890;2022-08-16T09:02:18;26.60;55.50
66934;DHT22;53846;51.984;5.890;2022-08-16T09:04:54;26.70;55.50
66934;DHT22;53846;51.984;5.890;2022-08-16T09:07:23;26.80;55.00
66934;DHT22;53846;51.984;5.890;2022-08-16T09:09:55;26.80;54.50
66934;DHT22;53846;51.984;5.890;2022-08-16T09:12:25;26.80;55.10
66934;DHT22;53846;51.984;5.890;2022-08-16T09:15:00;26.90;56.40
66934;DHT22;53846;51.984;5.890;2022-08-16T09:17:31;27.00;56.00
66934;DHT22;53846;51.984;5.890;2022-08-16T09:20:03;27.10;56.60
66934;DHT22;53846;51.984;5.890;2022-08-16T09:22:33;27.20;55.80
66934;DHT22;53846;51.984;5.890;2022-08-16T09:25:03;27.30;54.50
66934;DHT22;53846;51.984;5.890;2022-08-16T09:27:32;27.40;53.10
66934;DHT22;53846;51.984;5.890;2022-08-16T09:30:02;27.40;53.90
66934;DHT22;53846;51.984;5.890;2022-08-16T09:32:34;27.50;53.90
66934;DHT22;53846;51.984;5.890;2022-08-16T09:35:07;27.80;52.90
66934;DHT22;53846;51.984;5.890;2022-08-16T09:37:36;27.50;53.30
66934;DHT22;53846;51.984;5.890;2022-08-16T09:40:06;27.70;53.50
66934;DHT22;53846;51.984;5.890;2022-08-16T09:42:36;27.90;52.50
66934;DHT22;53846;51.984;5.890;2022-08-16T09:45:07;27.70;52.00
66934;DHT22;53846;51.984;5.890;2022-08-16T09:47:36;28.00;52.90
66934;DHT22;53846;51.984;5.890;2022-08-16T09:50:10;28.10;52.60
66934;DHT22;53846;51.984;5.890;2022-08-16T09:52:39;28.00;52.80
66934;DHT22;53846;51.984;5.890;2022-08-16T09:55:10;28.00;53.30
66934;DHT22;53846;51.984;5.890;2022-08-16T09:57:40;28.20;53.00
66934;DHT22;53846;51.984;5.890;2022-08-16T10:00:11;28.00;53.00
66934;DHT22;53846;51.984;5.890;2022-08-16T10:02:40;28.20;52.30
66934;DHT22;53846;51.984;5.890;2022-08-16T10:05:12;28.00;52.70
66934;DHT22;53846;51.984;5.890;2022-08-16T10:07:41;28.20;51.60
66934;DHT22;53846;51.984;5.890;2022-08-16T10:10:10;28.00;51.70
66934;DHT22;53846;51.984;5.890;2022-08-16T10:12:39;28.40;52.00
66934;DHT22;53846;51.984;5.890;2022-08-16T10:15:21;28.30;52.00
66934;DHT22;53846;51.984;5.890;2022-08-16T10:17:53;28.20;51.50
66934;DHT22;53846;51.984;5.890;2022-08-16T10:20:25;28.30;50.50
66934;DHT22;53846;51.984;5.890;2022-08-16T10:22:54;28.60;50.50
66934;DHT22;53846;51.984;5.890;2022-08-16T10:25:23;28.80;50.20
66934;DHT22;53846;51.984;5.890;2022-08-16T10:27:52;28.70;49.90
66934;DHT22;53846;51.984;5.890;2022-08-16T10:30:21;29.00;49.20
66934;DHT22;53846;51.984;5.890;2022-08-16T10:32:51;29.10;49.80
66934;DHT22;53846;51.984;5.890;2022-08-16T10:35:20;29.20;49.50
66934;DHT22;53846;51.984;5.890;2022-08-16T10:37:52;29.20;48.80
66934;DHT22;53846;51.984;5.890;2022-08-16T10:40:22;29.50;49.50
66934;DHT22;53846;51.984;5.890;2022-08-16T10:42:52;29.40;49.30
66934;DHT22;53846;51.984;5.890;2022-08-16T10:45:21;29.30;49.00
66934;DHT22;53846;51.984;5.890;2022-08-16T10:47:50;29.50;48.50
66934;DHT22;53846;51.984;5.890;2022-08-16T10:50:19;29.60;48.30
66934;DHT22;53846;51.984;5.890;2022-08-16T10:52:51;29.60;48.10
66934;DHT22;53846;51.984;5.890;2022-08-16T10:55:21;29.70;47.20
66934;DHT22;53846;51.984;5.890;2022-08-16T10:57:50;29.60;47.20
66934;DHT22;53846;51.984;5.890;2022-08-16T11:00:22;29.80;47.00
66934;DHT22;53846;51.984;5.890;2022-08-16T11:02:51;29.60;47.50
66934;DHT22;53846;51.984;5.890;2022-08-16T11:05:20;29.70;47.30
66934;DHT22;53846;51.984;5.890;2022-08-16T11:07:51;29.90;47.00
66934;DHT22;53846;51.984;5.890;2022-08-16T11:10:23;29.80;47.80
66934;DHT22;53846;51.984;5.890;2022-08-16T11:12:52;30.30;47.80
66934;DHT22;53846;51.984;5.890;2022-08-16T11:15:22;30.30;47.70
66934;DHT22;53846;51.984;5.890;2022-08-16T11:17:52;30.50;47.40
66934;DHT22;53846;51.984;5.890;2022-08-16T11:20:22;30.40;46.90
66934;DHT22;53846;51.984;5.890;2022-08-16T11:22:54;30.50;45.70
66934;DHT22;53846;51.984;5.890;2022-08-16T11:25:26;30.60;44.00
66934;DHT22;53846;51.984;5.890;2022-08-16T11:27:57;30.40;45.40
66934;DHT22;53846;51.984;5.890;2022-08-16T11:30:27;30.60;45.00
66934;DHT22;53846;51.984;5.890;2022-08-16T11:32:58;30.30;46.20
66934;DHT22;53846;51.984;5.890;2022-08-16T11:35:29;30.30;46.40
66934;DHT22;53846;51.984;5.890;2022-08-16T11:38:04;30.30;46.30
66934;DHT22;53846;51.984;5.890;2022-08-16T11:40:37;30.40;46.30
66934;DHT22;53846;51.984;5.890;2022-08-16T11:43:07;30.20;46.80
66934;DHT22;53846;51.984;5.890;2022-08-16T11:45:36;30.30;46.50
66934;DHT22;53846;51.984;5.890;2022-08-16T11:48:06;30.00;46.90
66934;DHT22;53846;51.984;5.890;2022-08-16T11:50:35;30.40;46.80
66934;DHT22;53846;51.984;5.890;2022-08-16T11:53:07;30.50;46.70
66934;DHT22;53846;51.984;5.890;2022-08-16T11:55:39;30.40;46.50
66934;DHT22;53846;51.984;5.890;2022-08-16T11:58:08;30.90;46.50
66934;DHT22;53846;51.984;5.890;2022-08-16T12:00:39;30.80;45.90
66934;DHT22;53846;51.984;5.890;2022-08-16T12:03:09;30.80;44.80
66934;DHT22;53846;51.984;5.890;2022-08-16T12:05:40;30.90;45.40
66934;DHT22;53846;51.984;5.890;2022-08-16T12:08:12;31.10;45.60
66934;DHT22;53846;51.984;5.890;2022-08-16T12:10:42;31.10;45.00
66934;DHT22;53846;51.984;5.890;2022-08-16T12:13:12;31.20;44.10
66934;DHT22;53846;51.984;5.890;2022-08-16T12:15:41;31.20;44.30
66934;DHT22;53846;51.984;5.890;2022-08-16T12:18:10;31.20;44.00
66934;DHT22;53846;51.984;5.890;2022-08-16T12:20:43;31.20;43.60
66934;DHT22;53846;51.984;5.890;2022-08-16T12:23:14;31.10;44.70
66934;DHT22;53846;51.984;5.890;2022-08-16T12:25:44;31.10;44.40
66934;DHT22;53846;51.984;5.890;2022-08-16T12:28:13;31.10;44.80
66934;DHT22;53846;51.984;5.890;2022-08-16T12:30:44;30.90;44.80
66934;DHT22;53846;51.984;5.890;2022-08-16T12:33:15;30.80;45.30
66934;DHT22;53846;51.984;5.890;2022-08-16T12:35:46;30.70;45.70
66934;DHT22;53846;51.984;5.890;2022-08-16T12:38:19;30.70;46.10
66934;DHT22;53846;51.984;5.890;2022-08-16T12:40:49;30.60;46.10
66934;DHT22;53846;51.984;5.890;2022-08-16T12:43:19;30.40;46.50
66934;DHT22;53846;51.984;5.890;2022-08-16T12:45:51;30.40;47.00
66934;DHT22;53846;51.984;5.890;2022-08-16T12:48:24;30.20;45.80
66934;DHT22;53846;51.984;5.890;2022-08-16T12:51:09;30.10;46.20
66934;DHT22;53846;51.984;5.890;2022-08-16T12:53:42;30.00;46.50
66934;DHT22;53846;51.984;5.890;2022-08-16T12:56:12;29.90;47.70
66934;DHT22;53846;51.984;5.890;2022-08-16T12:58:41;29.80;46.80
66934;DHT22;53846;51.984;5.890;2022-08-16T13:01:12;29.70;47.10
66934;DHT22;53846;51.984;5.890;2022-08-16T13:03:41;29.70;47.80
66934;DHT22;53846;51.984;5.890;2022-08-16T13:06:11;29.80;48.40
66934;DHT22;53846;51.984;5.890;2022-08-16T13:08:43;30.00;48.40
66934;DHT22;53846;51.984;5.890;2022-08-16T13:11:12;29.90;47.80
66934;DHT22;53846;51.984;5.890;2022-08-16T13:13:42;30.20;49.30
66934;DHT22;53846;51.984;5.890;2022-08-16T13:16:11;29.90;48.30
66934;DHT22;53846;51.984;5.890;2022-08-16T13:18:40;30.20;47.30
66934;DHT22;53846;51.984;5.890;2022-08-16T13:21:09;30.40;47.30
66934;DHT22;53846;51.984;5.890;2022-08-16T13:23:39;30.60;46.70
66934;DHT22;53846;51.984;5.890;2022-08-16T13:26:11;30.70;46.90
66934;DHT22;53846;51.984;5.890;2022-08-16T13:28:40;30.80;45.70
66934;DHT22;53846;51.984;5.890;2022-08-16T13:31:09;30.90;46.00
66934;DHT22;53846;51.984;5.890;2022-08-16T13:33:38;31.00;46.40
66934;DHT22;53846;51.984;5.890;2022-08-16T13:36:09;31.10;45.30
66934;DHT22;53846;51.984;5.890;2022-08-16T13:38:39;31.10;44.70
66934;DHT22;53846;51.984;5.890;2022-08-16T13:41:10;31.10;44.10
66934;DHT22;53846;51.984;5.890;2022-08-16T13:43:40;31.20;44.50
66934;DHT22;53846;51.984;5.890;2022-08-16T13:46:09;31.40;44.90
66934;DHT22;53846;51.984;5.890;2022-08-16T13:48:38;31.30;44.50
66934;DHT22;53846;51.984;5.890;2022-08-16T13:51:07;31.30;45.00
66934;DHT22;53846;51.984;5.890;2022-08-16T13:53:36;31.30;44.20
66934;DHT22;53846;51.984;5.890;2022-08-16T13:56:06;31.20;45.00
66934;DHT22;53846;51.984;5.890;2022-08-16T13:58:37;31.10;44.50
66934;DHT22;53846;51.984;5.890;2022-08-16T14:01:06;31.00;44.50
66934;DHT22;53846;51.984;5.890;2022-08-16T14:03:37;30.90;44.60
66934;DHT22;53846;51.984;5.890;2022-08-16T14:06:08;30.70;45.00
66934;DHT22;53846;51.984;5.890;2022-08-16T14:08:38;30.70;44.60
66934;DHT22;53846;51.984;5.890;2022-08-16T14:11:08;30.60;45.30
66934;DHT22;53846;51.984;5.890;2022-08-16T14:13:40;30.50;44.70
66934;DHT22;53846;51.984;5.890;2022-08-16T14:16:09;30.60;44.70
66934;DHT22;53846;51.984;5.890;2022-08-16T14:18:38;30.50;45.20
66934;DHT22;53846;51.984;5.890;2022-08-16T14:21:07;30.40;44.60
66934;DHT22;53846;51.984;5.890;2022-08-16T14:23:36;30.40;44.80
66934;DHT22;53846;51.984;5.890;2022-08-16T14:26:05;30.60;44.60
66934;DHT22;53846;51.984;5.890;2022-08-16T14:28:34;30.40;44.10
66934;DHT22;53846;51.984;5.890;2022-08-16T14:31:06;30.40;44.50
66934;DHT22;53846;51.984;5.890;2022-08-16T14:33:35;30.50;44.20
66934;DHT22;53846;51.984;5.890;2022-08-16T14:36:05;30.60;44.30
66934;DHT22;53846;51.984;5.890;2022-08-16T14:38:34;30.50;44.70
66934;DHT22;53846;51.984;5.890;2022-08-16T14:41:03;30.60;44.80
66934;DHT22;53846;51.984;5.890;2022-08-16T14:43:32;30.60;45.20
66934;DHT22;53846;51.984;5.890;2022-08-16T14:46:01;30.40;45.30
66934;DHT22;53846;51.984;5.890;2022-08-16T14:48:33;30.40;46.20
66934;DHT22;53846;51.984;5.890;2022-08-16T14:51:02;30.40;46.30
66934;DHT22;53846;51.984;5.890;2022-08-16T14:53:32;30.10;46.40
66934;DHT22;53846;51.984;5.890;2022-08-16T14:56:01;30.30;45.70
66934;DHT22;53846;51.984;5.890;2022-08-16T14:58:30;30.30;45.00
66934;DHT22;53846;51.984;5.890;2022-08-16T15:00:59;30.30;44.80
66934;DHT22;53846;51.984;5.890;2022-08-16T15:03:29;30.30;44.90
66934;DHT22;53846;51.984;5.890;2022-08-16T15:06:01;30.30;45.20
66934;DHT22;53846;51.984;5.890;2022-08-16T15:08:30;30.30;44.40
66934;DHT22;53846;51.984;5.890;2022-08-16T15:10:59;30.40;44.80
66934;DHT22;53846;51.984;5.890;2022-08-16T15:13:28;30.40;45.10
66934;DHT22;53846;51.984;5.890;2022-08-16T15:15:57;30.40;43.40
66934;DHT22;53846;51.984;5.890;2022-08-16T15:18:26;30.50;42.90
66934;DHT22;53846;51.984;5.890;2022-08-16T15:20:55;30.60;43.80
66934;DHT22;53846;51.984;5.890;2022-08-16T15:23:27;30.60;43.70
66934;DHT22;53846;51.984;5.890;2022-08-16T15:25:56;30.50;44.10
66934;DHT22;53846;51.984;5.890;2022-08-16T15:28:26;30.70;44.80
66934;DHT22;53846;51.984;5.890;2022-08-16T15:30:55;30.80;44.90
66934;DHT22;53846;51.984;5.890;2022-08-16T15:33:24;30.60;44.60
66934;DHT22;53846;51.984;5.890;2022-08-16T15:35:54;30.90;43.80
66934;DHT22;53846;51.984;5.890;2022-08-16T15:38:23;30.60;43.60
66934;DHT22;53846;51.984;5.890;2022-08-16T15:40:55;30.60;44.40
66934;DHT22;53846;51.984;5.890;2022-08-16T15:43:24;30.40;43.50
66934;DHT22;53846;51.984;5.890;2022-08-16T15:45:53;30.50;43.30
66934;DHT22;53846;51.984;5.890;2022-08-16T15:48:35;30.70;43.40
66934;DHT22;53846;51.984;5.890;2022-08-16T15:51:05;30.70;43.60
66934;DHT22;53846;51.984;5.890;2022-08-16T15:53:35;30.70;43.10
66934;DHT22;53846;51.984;5.890;2022-08-16T15:56:07;30.60;43.40